createdAt,value
2023-03-01T00:00:21.192Z,102241.47
2023-03-01T00:03:10.759Z,102230.09
2023-03-01T00:05:45.564Z,102238.03
2023-03-01T00:08:15.284Z,102239.84
2023-03-01T00:10:44.496Z,102245.94
2023-03-01T00:13:13.941Z,102252.06
2023-03-01T00:15:44.716Z,102235.38
2023-03-01T00:18:14.240Z,102228.38
2023-03-01T00:20:43.392Z,102223.03
2023-03-01T00:23:12.807Z,102214.34
2023-03-01T00:25:44.492Z,102216.03
2023-03-01T00:28:14.001Z,102209.94
2023-03-01T00:30:44.996Z,102209.88
2023-03-01T00:33:14.614Z,102214.22
2023-03-01T00:35:43.713Z,102215.13
2023-03-01T00:38:13.482Z,102219.59
2023-03-01T00:40:42.530Z,102219.66
2023-03-01T00:43:12.445Z,102214.25
2023-03-01T00:45:43.011Z,102214.25
2023-03-01T00:48:12.547Z,102209.03
2023-03-01T00:50:41.618Z,102208.22
2023-03-01T00:53:11.298Z,102193.31
2023-03-01T00:55:40.390Z,102197.69
2023-03-01T00:58:09.835Z,102196.66
2023-03-01T01:00:39.112Z,102187.88
2023-03-01T01:03:10.071Z,102195.88
2023-03-01T01:05:39.504Z,102204.63
2023-03-01T01:08:09.191Z,102196.72
2023-03-01T01:10:38.565Z,102205.47
2023-03-01T01:13:07.948Z,102207.31
2023-03-01T01:15:38.065Z,102215.22
2023-03-01T01:18:07.738Z,102216.13
2023-03-01T01:20:39.586Z,102209.06
2023-03-01T01:23:09.819Z,102193.25
2023-03-01T01:25:39.115Z,102187.97
2023-03-01T01:28:08.508Z,102195.88
2023-03-01T01:30:37.660Z,102193.31
2023-03-01T01:33:07.229Z,102196.78
2023-03-01T01:35:36.464Z,102205.63
2023-03-01T01:38:07.193Z,102208.25
2023-03-01T01:40:36.609Z,102201.25
2023-03-01T01:43:07.203Z,102202.97
2023-03-01T01:45:37.804Z,102189.84
2023-03-01T01:48:13.012Z,102188.09
2023-03-01T01:50:46.105Z,102178.41
2023-03-01T01:53:20.394Z,102172.34
2023-03-01T01:55:54.479Z,102160.88
2023-03-01T01:58:26.492Z,102160.81
2023-03-01T02:00:56.607Z,102158.19
2023-03-01T02:03:30.491Z,102158.19
2023-03-01T02:06:05.542Z,102159.91
2023-03-01T02:08:40.190Z,102156.41
2023-03-01T02:11:11.029Z,102152.88
2023-03-01T02:13:40.776Z,102158.13
2023-03-01T02:16:13.330Z,102159.84
2023-03-01T02:18:45.645Z,102151.97
2023-03-01T02:21:29.800Z,102151.06
2023-03-01T02:24:06.900Z,102145.69
2023-03-01T02:26:43.053Z,102148.41
2023-03-01T02:29:13.916Z,102151.84
2023-03-01T02:31:46.026Z,102156.31
2023-03-01T02:34:18.535Z,102154.50
2023-03-01T02:36:50.154Z,102165.06
2023-03-01T02:39:24.200Z,102159.75
2023-03-01T02:41:56.251Z,102162.31
2023-03-01T02:44:27.441Z,102150.88
2023-03-01T02:46:59.863Z,102151.75
2023-03-01T02:49:31.696Z,102145.66
2023-03-01T02:52:22.794Z,102147.34
2023-03-01T02:54:58.488Z,102153.47
2023-03-01T02:57:29.805Z,102145.56
2023-03-01T03:00:08.116Z,102142.88
2023-03-01T03:02:38.802Z,102145.56
2023-03-01T03:05:15.392Z,102146.41
2023-03-01T03:07:47.489Z,102128.97
2023-03-01T03:10:20.519Z,102124.50
2023-03-01T03:12:53.612Z,102120.13
2023-03-01T03:15:25.354Z,102119.22
2023-03-01T03:17:56.139Z,102113.06
2023-03-01T03:20:28.563Z,102112.16
2023-03-01T03:22:59.974Z,102110.41
2023-03-01T03:25:31.625Z,102113.06
2023-03-01T03:28:01.527Z,102115.72
2023-03-01T03:31:20.017Z,102108.69
2023-03-01T03:33:50.859Z,102106.06
2023-03-01T03:36:21.587Z,102109.56
2023-03-01T03:38:51.075Z,102106.88
2023-03-01T03:41:20.593Z,102109.59
2023-03-01T03:43:50.104Z,102098.22
2023-03-01T03:46:19.505Z,102098.13
2023-03-01T03:48:51.063Z,102101.63
2023-03-01T03:51:23.857Z,102097.25
2023-03-01T03:53:53.131Z,102090.25
2023-03-01T03:56:22.514Z,102095.50
2023-03-01T03:58:51.892Z,102091.97
2023-03-01T04:01:21.386Z,102088.50
2023-03-01T04:03:55.574Z,102095.53
2023-03-01T04:06:25.052Z,102087.59
2023-03-01T04:09:00.011Z,102088.50
2023-03-01T04:11:29.516Z,102086.72
2023-03-01T04:14:01.166Z,102078.78
2023-03-01T04:16:31.075Z,102078.78
2023-03-01T04:19:01.913Z,102078.72
2023-03-01T04:21:31.366Z,102078.78
2023-03-01T04:24:00.420Z,102078.72
2023-03-01T04:26:30.305Z,102077.84
2023-03-01T04:28:59.628Z,102073.44
2023-03-01T04:31:29.431Z,102084.88
2023-03-01T04:34:01.165Z,102080.44
2023-03-01T04:36:31.932Z,102087.50
2023-03-01T04:39:01.694Z,102079.59
2023-03-01T04:41:31.058Z,102082.22
2023-03-01T04:44:01.156Z,102078.66
2023-03-01T04:46:30.878Z,102082.22
2023-03-01T04:49:01.642Z,102078.66
2023-03-01T04:51:33.209Z,102081.31
2023-03-01T04:54:02.574Z,102081.25
2023-03-01T04:56:32.433Z,102079.63
2023-03-01T04:59:01.903Z,102076.13
2023-03-01T05:01:31.407Z,102082.22
2023-03-01T05:04:06.697Z,102078.66
2023-03-01T05:06:36.187Z,102077.78
2023-03-01T05:09:05.359Z,102079.50
2023-03-01T05:11:36.980Z,102075.88
2023-03-01T05:14:08.224Z,102071.56
2023-03-01T05:16:38.510Z,102075.13
2023-03-01T05:19:16.193Z,102074.28
2023-03-01T05:22:05.169Z,102073.31
2023-03-01T05:24:36.138Z,102079.41
2023-03-01T05:27:07.388Z,102075.06
2023-03-01T05:29:36.935Z,102066.22
2023-03-01T05:32:06.807Z,102068.03
2023-03-01T05:34:39.356Z,102073.22
2023-03-01T05:37:09.600Z,102069.59
2023-03-01T05:39:38.599Z,102068.84
2023-03-01T05:42:09.773Z,102070.59
2023-03-01T05:44:39.259Z,102070.50
2023-03-01T05:47:08.569Z,102074.94
2023-03-01T05:49:39.892Z,102063.50
2023-03-01T05:52:09.964Z,102064.41
2023-03-01T05:54:39.748Z,102063.47
2023-03-01T05:57:08.884Z,102055.59
2023-03-01T05:59:38.332Z,102059.03
2023-03-01T06:02:07.674Z,102065.22
2023-03-01T06:04:38.265Z,102066.97
2023-03-01T06:07:07.729Z,102059.03
2023-03-01T06:09:36.815Z,102055.59
2023-03-01T06:12:07.342Z,102071.47
2023-03-01T06:14:36.547Z,102069.66
2023-03-01T06:17:06.038Z,102072.28
2023-03-01T06:19:35.463Z,102070.56
2023-03-01T06:22:06.222Z,102082.00
2023-03-01T06:24:35.843Z,102075.03
2023-03-01T06:27:05.624Z,102076.78
2023-03-01T06:29:34.812Z,102079.41
2023-03-01T06:32:04.570Z,102082.97
2023-03-01T06:34:34.277Z,102086.59
2023-03-01T06:37:06.294Z,102086.63
2023-03-01T06:39:35.997Z,102085.78
2023-03-01T06:42:05.451Z,102089.34
2023-03-01T06:44:34.722Z,102088.50
2023-03-01T06:47:04.281Z,102090.31
2023-03-01T06:49:33.573Z,102081.59
2023-03-01T06:52:02.930Z,102086.97
2023-03-01T06:54:33.474Z,102091.44
2023-03-01T06:57:02.938Z,102102.97
2023-03-01T06:59:32.550Z,102099.53
2023-03-01T07:02:02.179Z,102099.47
2023-03-01T07:04:31.617Z,102097.72
2023-03-01T07:07:01.502Z,102099.53
2023-03-01T07:09:32.248Z,102105.78
2023-03-01T07:12:02.089Z,102098.78
2023-03-01T07:14:31.819Z,102101.44
2023-03-01T07:17:01.353Z,102102.31
2023-03-01T07:19:30.427Z,102097.97
2023-03-01T07:21:59.799Z,102105.91
2023-03-01T07:24:29.376Z,102109.50
2023-03-01T07:27:00.121Z,102111.25
2023-03-01T07:29:29.933Z,102112.19
2023-03-01T07:31:59.552Z,102108.78
2023-03-01T07:34:28.718Z,102104.44
2023-03-01T07:36:58.077Z,102120.25
2023-03-01T07:39:27.163Z,102114.16
2023-03-01T07:41:56.939Z,102111.53
2023-03-01T07:44:27.602Z,102120.41
2023-03-01T07:47:00.436Z,102117.78
2023-03-01T07:49:29.673Z,102116.03
2023-03-01T07:51:59.338Z,102125.78
2023-03-01T07:54:28.626Z,102128.44
2023-03-01T07:56:59.341Z,102121.41
2023-03-01T07:59:30.903Z,102118.81
2023-03-01T08:02:00.759Z,102120.69
2023-03-01T08:04:30.152Z,102115.47
2023-03-01T08:06:59.655Z,102108.53
2023-03-01T08:09:28.928Z,102099.75
2023-03-01T08:12:00.636Z,102098.06
2023-03-01T08:14:32.396Z,102094.63
2023-03-01T08:17:04.382Z,102083.28
2023-03-01T08:19:34.961Z,102083.34
2023-03-01T08:22:04.857Z,102090.50
2023-03-01T08:24:33.990Z,102095.88
2023-03-01T08:27:03.954Z,102075.69
2023-03-01T08:29:36.022Z,102084.59
2023-03-01T08:32:06.282Z,102090.81
2023-03-01T08:34:37.604Z,102097.06
2023-03-01T08:37:07.105Z,102093.63
2023-03-01T08:39:36.399Z,102098.97
2023-03-01T08:42:06.109Z,102091.13
2023-03-01T08:44:36.677Z,102090.34
2023-03-01T08:47:06.291Z,102091.34
2023-03-01T08:49:35.502Z,102097.59
2023-03-01T08:52:05.330Z,102090.63
2023-03-01T08:54:34.378Z,102078.34
2023-03-01T08:57:05.026Z,102081.94
2023-03-01T08:59:38.303Z,102077.59
2023-03-01T09:02:12.921Z,102077.63
2023-03-01T09:04:43.762Z,102081.25
2023-03-01T09:07:14.336Z,102083.06
2023-03-01T09:09:43.754Z,102088.38
2023-03-01T09:12:13.359Z,102088.44
2023-03-01T09:14:44.124Z,102089.38
2023-03-01T09:17:13.748Z,102088.56
2023-03-01T09:19:42.838Z,102094.78
2023-03-01T09:22:12.224Z,102101.91
2023-03-01T09:24:41.694Z,102093.09
2023-03-01T09:27:11.645Z,102081.69
2023-03-01T09:29:42.352Z,102087.91
2023-03-01T09:32:12.277Z,102089.72
2023-03-01T09:34:55.390Z,102086.19
2023-03-01T09:37:25.134Z,102085.38
2023-03-01T09:39:54.192Z,102083.63
2023-03-01T09:42:23.903Z,102092.50
2023-03-01T09:44:58.634Z,102094.31
2023-03-01T09:47:31.147Z,102091.66
2023-03-01T09:50:10.817Z,102082.88
2023-03-01T09:52:44.351Z,102084.66
2023-03-01T09:55:17.005Z,102076.69
2023-03-01T09:57:55.357Z,102073.19
2023-03-01T10:00:36.117Z,102074.09
2023-03-01T10:03:14.291Z,102080.28
2023-03-01T10:05:52.259Z,102073.22
2023-03-01T10:08:37.228Z,102089.13
2023-03-01T10:11:14.992Z,102090.03
2023-03-01T10:13:53.918Z,102096.25
2023-03-01T10:16:29.820Z,102102.44
2023-03-01T10:19:04.553Z,102091.84
2023-03-01T10:21:38.572Z,102092.72
2023-03-01T10:24:15.492Z,102096.28
2023-03-01T10:26:56.019Z,102088.34
2023-03-01T10:29:29.664Z,102089.22
2023-03-01T10:32:00.416Z,102082.16
2023-03-01T10:34:33.025Z,102090.13
2023-03-01T10:37:12.020Z,102088.34
2023-03-01T10:39:58.583Z,102095.41
2023-03-01T10:42:31.259Z,102087.47
2023-03-01T10:45:16.798Z,102090.09
2023-03-01T10:47:47.544Z,102087.44
2023-03-01T10:50:24.895Z,102084.78
2023-03-01T10:53:02.743Z,102085.69
2023-03-01T10:55:36.986Z,102089.22
2023-03-01T10:58:19.294Z,102075.03
2023-03-01T11:00:52.197Z,102080.34
2023-03-01T11:03:25.752Z,102077.69
2023-03-01T11:06:04.457Z,102079.44
2023-03-01T11:08:37.016Z,102081.22
2023-03-01T11:11:18.837Z,102080.34
2023-03-01T11:13:56.391Z,102074.16
2023-03-01T11:16:35.424Z,102082.13
2023-03-01T11:19:21.063Z,102075.03
2023-03-01T11:22:00.565Z,102078.56
2023-03-01T11:24:37.114Z,102075.88
2023-03-01T11:27:18.295Z,102067.00
2023-03-01T11:29:52.398Z,102073.22
2023-03-01T11:32:25.666Z,102060.78
2023-03-01T11:35:02.467Z,102069.63
2023-03-01T11:37:44.093Z,102055.50
2023-03-01T11:40:23.862Z,102047.47
2023-03-01T11:43:08.686Z,102056.34
2023-03-01T11:45:49.892Z,102049.28
2023-03-01T11:48:55.496Z,102039.53
2023-03-01T11:51:39.616Z,102042.16
2023-03-01T11:54:20.785Z,102040.38
2023-03-01T11:56:57.510Z,102043.94
2023-03-01T11:59:43.854Z,102056.38
2023-03-01T12:02:37.393Z,102051.03
2023-03-01T12:05:53.455Z,102051.03
2023-03-01T12:08:32.051Z,102047.47
2023-03-01T12:11:12.121Z,102050.13
2023-03-01T12:14:00.603Z,102056.34
2023-03-01T12:16:42.846Z,102049.22
2023-03-01T12:19:29.341Z,102045.69
2023-03-01T12:22:14.465Z,102050.13
2023-03-01T12:25:14.640Z,102043.91
2023-03-01T12:28:02.634Z,102043.91
2023-03-01T12:30:45.857Z,102043.94
2023-03-01T12:33:24.717Z,102046.56
2023-03-01T12:36:19.382Z,102045.66
2023-03-01T12:38:52.583Z,102041.25
2023-03-01T12:41:43.793Z,102038.56
2023-03-01T12:44:37.678Z,102032.34
2023-03-01T12:47:33.084Z,102032.34
2023-03-01T12:50:07.021Z,102031.44
2023-03-01T12:52:43.324Z,102032.28
2023-03-01T12:55:35.808Z,102038.50
2023-03-01T12:58:15.859Z,102025.19
2023-03-01T13:00:56.698Z,102032.25
2023-03-01T13:03:35.033Z,102033.13
2023-03-01T13:06:13.198Z,102031.38
2023-03-01T13:08:46.461Z,102024.25
2023-03-01T13:11:21.936Z,102026.88
2023-03-01T13:13:56.846Z,102026.88
2023-03-01T13:16:43.890Z,102022.44
2023-03-01T13:19:18.342Z,102021.53
2023-03-01T13:21:49.583Z,102015.28
2023-03-01T13:24:29.720Z,102017.91
2023-03-01T13:27:30.207Z,102017.03
2023-03-01T13:30:05.653Z,102022.31
2023-03-01T13:32:44.566Z,102017.88
2023-03-01T13:35:45.580Z,102020.50
2023-03-01T13:38:48.679Z,102025.78
2023-03-01T13:41:21.366Z,102014.19
2023-03-01T13:43:51.147Z,102015.78
2023-03-01T13:46:25.604Z,102018.25
2023-03-01T13:48:58.449Z,102011.78
2023-03-01T13:51:30.704Z,102010.50
2023-03-01T13:54:01.616Z,102009.19
2023-03-01T13:56:38.658Z,102004.25
2023-03-01T13:59:15.316Z,102015.22
2023-03-01T14:01:46.583Z,102009.41
2023-03-01T14:04:24.502Z,102008.00
2023-03-01T14:06:54.172Z,102015.38
2023-03-01T14:09:29.402Z,102012.03
2023-03-01T14:12:20.360Z,102009.50
2023-03-01T14:14:58.671Z,102011.66
2023-03-01T14:18:00.108Z,102003.28
2023-03-01T14:20:32.829Z,101998.66
2023-03-01T14:23:11.185Z,102009.56
2023-03-01T14:25:47.991Z,102013.59
2023-03-01T14:28:20.543Z,102002.63
2023-03-01T14:30:51.968Z,102008.19
2023-03-01T14:33:26.423Z,101999.91
2023-03-01T14:35:58.878Z,102004.06
2023-03-01T14:38:35.831Z,102002.47
2023-03-01T14:41:08.221Z,102008.25
2023-03-01T14:43:40.032Z,102001.38
2023-03-01T14:46:18.904Z,101996.28
2023-03-01T14:48:53.702Z,101992.28
2023-03-01T14:51:23.644Z,101990.63
2023-03-01T14:53:54.023Z,101988.84
2023-03-01T14:56:23.474Z,101991.53
2023-03-01T14:58:56.004Z,101992.97
2023-03-01T15:01:25.785Z,101998.63
2023-03-01T15:03:56.907Z,101993.47
2023-03-01T15:06:26.660Z,101998.81
2023-03-01T15:09:00.238Z,102003.06
2023-03-01T15:11:32.162Z,102001.03
2023-03-01T15:14:02.058Z,101999.53
2023-03-01T15:16:33.822Z,101994.22
2023-03-01T15:19:06.864Z,101987.59
2023-03-01T15:21:39.101Z,101990.53
2023-03-01T15:24:21.565Z,101999.47
2023-03-01T15:26:56.390Z,101989.22
2023-03-01T15:29:31.289Z,101981.88
2023-03-01T15:32:04.988Z,101986.97
2023-03-01T15:34:38.116Z,101987.78
2023-03-01T15:37:28.666Z,101981.19
2023-03-01T15:39:59.774Z,101971.13
2023-03-01T15:42:40.802Z,101976.16
2023-03-01T15:45:25.191Z,101969.47
2023-03-01T15:47:58.815Z,101970.94
2023-03-01T15:50:34.275Z,101973.25
2023-03-01T15:53:07.515Z,101974.53
2023-03-01T15:55:36.770Z,101978.53
2023-03-01T15:58:08.841Z,101970.91
2023-03-01T16:00:40.934Z,101967.63
2023-03-01T16:03:17.850Z,101968.78
2023-03-01T16:05:48.755Z,101968.94
2023-03-01T16:08:19.963Z,101971.03
2023-03-01T16:10:51.361Z,101964.91
2023-03-01T16:13:23.190Z,101969.53
2023-03-01T16:15:53.273Z,101972.31
2023-03-01T16:18:22.859Z,101968.03
2023-03-01T16:20:55.196Z,101977.06
2023-03-01T16:23:26.110Z,101972.72
2023-03-01T16:25:55.570Z,101971.03
2023-03-01T16:28:24.927Z,101971.16
2023-03-01T16:30:54.236Z,101977.44
2023-03-01T16:33:28.078Z,101973.94
2023-03-01T16:36:08.745Z,101969.59
2023-03-01T16:38:38.417Z,101959.03
2023-03-01T16:41:13.170Z,101971.47
2023-03-01T16:43:48.806Z,101965.28
2023-03-01T16:46:20.248Z,101972.41
2023-03-01T16:48:50.284Z,101976.84
2023-03-01T16:51:21.645Z,101981.31
2023-03-01T16:53:52.080Z,101976.84
2023-03-01T16:56:21.759Z,101976.88
2023-03-01T16:58:51.161Z,101983.94
2023-03-01T17:01:24.480Z,101989.25
2023-03-01T17:03:54.189Z,101980.38
2023-03-01T17:06:25.890Z,101982.13
2023-03-01T17:08:55.780Z,101976.81
2023-03-01T17:11:24.909Z,101993.59
2023-03-01T17:13:54.895Z,101995.34
2023-03-01T17:16:24.719Z,101995.28
2023-03-01T17:18:54.752Z,102010.25
2023-03-01T17:21:25.538Z,102006.69
2023-03-01T17:23:58.783Z,101999.59
2023-03-01T17:26:29.523Z,102006.63
2023-03-01T17:28:59.433Z,102011.03
2023-03-01T17:31:28.850Z,102008.31
2023-03-01T17:34:01.636Z,102011.84
2023-03-01T17:36:34.749Z,102020.66
2023-03-01T17:39:06.736Z,102012.63
2023-03-01T17:41:35.957Z,102016.16
2023-03-01T17:44:05.659Z,102021.41
2023-03-01T17:46:34.810Z,102018.75
2023-03-01T17:49:04.755Z,102017.00
2023-03-01T17:51:37.475Z,102016.97
2023-03-01T17:54:08.181Z,102017.00
2023-03-01T17:56:42.965Z,102016.97
2023-03-01T17:59:12.952Z,102019.63
2023-03-01T18:01:45.204Z,102027.56
2023-03-01T18:04:18.587Z,102031.06
2023-03-01T18:06:52.238Z,102039.03
2023-03-01T18:09:32.054Z,102028.41
2023-03-01T18:12:06.053Z,102033.72
2023-03-01T18:14:40.211Z,102034.56
2023-03-01T18:17:12.455Z,102027.56
2023-03-01T18:19:43.621Z,102023.97
2023-03-01T18:22:17.378Z,102031.06
2023-03-01T18:24:48.792Z,102036.34
2023-03-01T18:27:26.095Z,102027.53
2023-03-01T18:29:58.865Z,102024.88
2023-03-01T18:32:29.480Z,102035.38
2023-03-01T18:35:00.230Z,102029.19
2023-03-01T18:37:33.253Z,102027.41
2023-03-01T18:40:04.726Z,102038.03
2023-03-01T18:42:35.513Z,102038.03
2023-03-01T18:45:06.627Z,102034.50
2023-03-01T18:47:42.882Z,102038.88
2023-03-01T18:50:15.547Z,102031.84
2023-03-01T18:52:54.183Z,102031.88
2023-03-01T18:55:25.921Z,102020.44
2023-03-01T18:57:57.916Z,102016.00
2023-03-01T19:00:28.695Z,102016.00
2023-03-01T19:03:01.583Z,102020.44
2023-03-01T19:05:34.158Z,102015.16
2023-03-01T19:08:11.060Z,102019.59
2023-03-01T19:10:47.043Z,102027.53
2023-03-01T19:13:17.980Z,102025.72
2023-03-01T19:15:54.922Z,102037.22
2023-03-01T19:18:31.254Z,102046.91
2023-03-01T19:21:04.313Z,102034.53
2023-03-01T19:23:39.338Z,102046.00
2023-03-01T19:26:13.160Z,102046.91
2023-03-01T19:28:44.841Z,102046.91
2023-03-01T19:31:19.822Z,102052.19
2023-03-01T19:33:57.044Z,102048.66
2023-03-01T19:36:37.574Z,102066.28
2023-03-01T19:39:15.671Z,102061.88
2023-03-01T19:41:49.985Z,102068.06
2023-03-01T19:44:25.036Z,102051.25
2023-03-01T19:46:57.228Z,102057.44
2023-03-01T19:49:30.064Z,102051.22
2023-03-01T19:52:00.554Z,102058.25
2023-03-01T19:54:34.803Z,102053.91
2023-03-01T19:57:07.550Z,102052.06
2023-03-01T19:59:41.041Z,102062.66
2023-03-01T20:02:13.462Z,102059.09
2023-03-01T20:04:45.162Z,102053.78
2023-03-01T20:07:15.312Z,102060.88
2023-03-01T20:09:51.539Z,102061.72
2023-03-01T20:12:26.848Z,102057.28
2023-03-01T20:15:02.732Z,102057.28
2023-03-01T20:17:38.529Z,102061.66
2023-03-01T20:20:15.957Z,102056.38
2023-03-01T20:22:51.084Z,102059.03
2023-03-01T20:25:27.148Z,102065.16
2023-03-01T20:27:59.181Z,102069.56
2023-03-01T20:30:30.196Z,102068.59
2023-03-01T20:33:05.476Z,102058.94
2023-03-01T20:35:36.766Z,102056.28
2023-03-01T20:38:08.233Z,102057.13
2023-03-01T20:40:39.849Z,102051.84
2023-03-01T20:43:14.672Z,102061.47
2023-03-01T20:45:44.773Z,102058.81
2023-03-01T20:48:14.568Z,102051.78
2023-03-01T20:50:44.650Z,102055.28
2023-03-01T20:53:14.436Z,102049.09
2023-03-01T20:55:47.373Z,102049.94
2023-03-01T20:58:18.110Z,102059.63
2023-03-01T21:00:49.721Z,102060.50
2023-03-01T21:03:19.950Z,102056.94
2023-03-01T21:05:53.001Z,102051.63
2023-03-01T21:08:32.284Z,102046.28
2023-03-01T21:11:06.273Z,102063.94
2023-03-01T21:13:39.713Z,102059.50
2023-03-01T21:16:14.441Z,102065.66
2023-03-01T21:18:48.261Z,102063.00
2023-03-01T21:21:21.352Z,102059.41
2023-03-01T21:23:56.782Z,102064.69
2023-03-01T21:26:35.311Z,102057.66
2023-03-01T21:29:06.323Z,102055.78
2023-03-01T21:31:37.384Z,102049.63
2023-03-01T21:34:08.678Z,102053.09
2023-03-01T21:36:40.539Z,102055.69
2023-03-01T21:39:11.905Z,102054.78
2023-03-01T21:41:43.258Z,102052.06
2023-03-01T21:44:15.391Z,102050.22
2023-03-01T21:46:44.863Z,102044.00
2023-03-01T21:49:14.494Z,102046.59
2023-03-01T21:51:45.570Z,102042.00
2023-03-01T21:54:17.538Z,102034.91
2023-03-01T21:56:51.176Z,102048.06
2023-03-01T21:59:23.629Z,102047.94
2023-03-01T22:01:54.902Z,102052.22
2023-03-01T22:04:25.231Z,102053.91
2023-03-01T22:06:54.985Z,102059.09
2023-03-01T22:09:25.878Z,102058.09
2023-03-01T22:12:02.609Z,102056.22
2023-03-01T22:14:33.867Z,102057.91
2023-03-01T22:17:03.418Z,102059.56
2023-03-01T22:19:33.074Z,102062.06
2023-03-01T22:22:02.457Z,102060.22
2023-03-01T22:24:31.981Z,102062.72
2023-03-01T22:27:02.687Z,102063.50
2023-03-01T22:29:32.396Z,102057.19
2023-03-01T22:32:01.648Z,102059.72
2023-03-01T22:34:31.415Z,102054.34
2023-03-01T22:37:00.565Z,102052.47
2023-03-01T22:39:30.086Z,102048.06
2023-03-01T22:41:59.415Z,102047.97
2023-03-01T22:44:30.248Z,102050.44
2023-03-01T22:46:59.963Z,102050.38
2023-03-01T22:49:29.358Z,102052.03
2023-03-01T22:51:59.842Z,102044.88
2023-03-01T22:54:29.982Z,102050.09
2023-03-01T22:56:59.187Z,102045.56
2023-03-01T22:59:30.325Z,102046.38
2023-03-01T23:01:59.491Z,102041.84
2023-03-01T23:04:28.841Z,102040.91
2023-03-01T23:06:58.259Z,102042.59
2023-03-01T23:09:30.928Z,102035.44
2023-03-01T23:12:02.013Z,102040.66
2023-03-01T23:14:33.710Z,102035.31
2023-03-01T23:17:03.675Z,102031.75
2023-03-01T23:19:33.240Z,102044.84
2023-03-01T23:22:02.451Z,102039.47
2023-03-01T23:24:32.538Z,102047.34
2023-03-01T23:27:03.261Z,102048.06
2023-03-01T23:29:34.557Z,102050.56
2023-03-01T23:32:03.967Z,102055.81
2023-03-01T23:34:33.297Z,102052.19
2023-03-01T23:37:03.454Z,102053.84
2023-03-01T23:39:33.414Z,102053.75
2023-03-01T23:42:02.580Z,102049.25
2023-03-01T23:44:33.598Z,102043.91
2023-03-01T23:47:14.457Z,102039.44
2023-03-01T23:49:43.963Z,102043.78
2023-03-01T23:52:17.350Z,102037.59
2023-03-01T23:54:46.855Z,102025.22
2023-03-01T23:57:15.926Z,102030.50
2023-03-01T23:59:46.876Z,102028.66
